sensor_id;sensor_type;location;lat;lon;timestamp;P1;durP1;ratioP1;P2;durP2;ratioP2
19861;SDS011;10093;48.148;8.542;2023-05-10T00:01:55;0.68;;;0.10;;
19861;SDS011;10093;48.148;8.542;2023-05-10T00:04:20;0.57;;;0.00;;
19861;SDS011;10093;48.148;8.542;2023-05-10T00:06:46;0.10;;;0.00;;
19861;SDS011;10093;48.148;8.542;2023-05-10T00:09:12;1.02;;;0.10;;
19861;SDS011;10093;48.148;8.542;2023-05-10T00:11:37;0.47;;;0.10;;
19861;SDS011;10093;48.148;8.542;2023-05-10T00:14:03;0.10;;;0.10;;
19861;SDS011;10093;48.148;8.542;2023-05-10T00:16:28;0.10;;;0.10;;
19861;SDS011;10093;48.148;8.542;2023-05-10T00:18:54;0.35;;;0.10;;
19861;SDS011;10093;48.148;8.542;2023-05-10T00:21:20;0.45;;;0.00;;
19861;SDS011;10093;48.148;8.542;2023-05-10T00:23:45;2.38;;;0.10;;
19861;SDS011;10093;48.148;8.542;2023-05-10T00:26:11;0.28;;;0.10;;
19861;SDS011;10093;48.148;8.542;2023-05-10T00:28:36;0.00;;;0.00;;
19861;SDS011;10093;48.148;8.542;2023-05-10T00:31:02;0.85;;;0.10;;
19861;SDS011;10093;48.148;8.542;2023-05-10T00:33:28;0.17;;;0.10;;
19861;SDS011;10093;48.148;8.542;2023-05-10T00:35:53;1.40;;;0.10;;
19861;SDS011;10093;48.148;8.542;2023-05-10T00:38:19;0.55;;;0.15;;
19861;SDS011;10093;48.148;8.542;2023-05-10T00:40:44;2.15;;;0.10;;
19861;SDS011;10093;48.148;8.542;2023-05-10T00:43:10;2.05;;;0.10;;
19861;SDS011;10093;48.148;8.542;2023-05-10T00:45:36;1.58;;;0.10;;
19861;SDS011;10093;48.148;8.542;2023-05-10T00:48:02;1.15;;;0.13;;
19861;SDS011;10093;48.148;8.542;2023-05-10T00:50:28;0.10;;;0.10;;
19861;SDS011;10093;48.148;8.542;2023-05-10T00:52:55;1.50;;;0.10;;
19861;SDS011;10093;48.148;8.542;2023-05-10T00:55:22;1.33;;;0.10;;
19861;SDS011;10093;48.148;8.542;2023-05-10T00:57:48;3.92;;;0.10;;
19861;SDS011;10093;48.148;8.542;2023-05-10T01:00:14;1.20;;;0.10;;
19861;SDS011;10093;48.148;8.542;2023-05-10T01:02:43;1.38;;;0.10;;
19861;SDS011;10093;48.148;8.542;2023-05-10T01:05:10;0.40;;;0.10;;
19861;SDS011;10093;48.148;8.542;2023-05-10T01:07:36;1.75;;;0.10;;
19861;SDS011;10093;48.148;8.542;2023-05-10T01:10:01;0.80;;;0.10;;
19861;SDS011;10093;48.148;8.542;2023-05-10T01:12:27;2.88;;;0.10;;
19861;SDS011;10093;48.148;8.542;2023-05-10T01:14:53;0.82;;;0.10;;
19861;SDS011;10093;48.148;8.542;2023-05-10T01:17:20;0.20;;;0.10;;
19861;SDS011;10093;48.148;8.542;2023-05-10T01:19:46;1.92;;;0.20;;
19861;SDS011;10093;48.148;8.542;2023-05-10T01:36:19;1.35;;;0.30;;
19861;SDS011;10093;48.148;8.542;2023-05-10T01:41:54;2.58;;;0.22;;
19861;SDS011;10093;48.148;8.542;2023-05-10T01:44:29;3.35;;;0.50;;
19861;SDS011;10093;48.148;8.542;2023-05-10T01:49:32;0.20;;;0.20;;
19861;SDS011;10093;48.148;8.542;2023-05-10T01:52:12;1.42;;;0.20;;
19861;SDS011;10093;48.148;8.542;2023-05-10T01:54:44;0.95;;;0.30;;
19861;SDS011;10093;48.148;8.542;2023-05-10T01:57:27;2.50;;;0.30;;
19861;SDS011;10093;48.148;8.542;2023-05-10T01:59:57;1.38;;;0.30;;
19861;SDS011;10093;48.148;8.542;2023-05-10T02:02:26;1.35;;;0.38;;
19861;SDS011;10093;48.148;8.542;2023-05-10T02:04:54;4.00;;;0.40;;
19861;SDS011;10093;48.148;8.542;2023-05-10T02:07:22;1.20;;;0.40;;
19861;SDS011;10093;48.148;8.542;2023-05-10T02:09:49;0.30;;;0.30;;
19861;SDS011;10093;48.148;8.542;2023-05-10T02:12:16;0.45;;;0.30;;
19861;SDS011;10093;48.148;8.542;2023-05-10T02:14:42;0.52;;;0.28;;
19861;SDS011;10093;48.148;8.542;2023-05-10T02:17:09;0.38;;;0.20;;
19861;SDS011;10093;48.148;8.542;2023-05-10T02:19:38;2.60;;;0.30;;
19861;SDS011;10093;48.148;8.542;2023-05-10T02:22:05;1.00;;;0.20;;
19861;SDS011;10093;48.148;8.542;2023-05-10T02:24:33;4.50;;;0.30;;
19861;SDS011;10093;48.148;8.542;2023-05-10T02:27:01;1.60;;;0.30;;
19861;SDS011;10093;48.148;8.542;2023-05-10T02:29:28;0.30;;;0.30;;
19861;SDS011;10093;48.148;8.542;2023-05-10T02:31:55;0.32;;;0.30;;
19861;SDS011;10093;48.148;8.542;2023-05-10T02:34:22;0.57;;;0.40;;
19861;SDS011;10093;48.148;8.542;2023-05-10T02:36:50;2.60;;;0.40;;
19861;SDS011;10093;48.148;8.542;2023-05-10T02:39:17;0.98;;;0.50;;
19861;SDS011;10093;48.148;8.542;2023-05-10T02:41:45;0.40;;;0.40;;
19861;SDS011;10093;48.148;8.542;2023-05-10T02:44:14;4.60;;;0.40;;
19861;SDS011;10093;48.148;8.542;2023-05-10T02:46:42;4.13;;;0.88;;
19861;SDS011;10093;48.148;8.542;2023-05-10T02:49:08;0.65;;;0.40;;
19861;SDS011;10093;48.148;8.542;2023-05-10T02:51:35;1.30;;;0.45;;
19861;SDS011;10093;48.148;8.542;2023-05-10T02:54:04;2.90;;;0.40;;
19861;SDS011;10093;48.148;8.542;2023-05-10T02:56:35;1.65;;;0.60;;
19861;SDS011;10093;48.148;8.542;2023-05-10T02:59:05;1.08;;;0.40;;
19861;SDS011;10093;48.148;8.542;2023-05-10T03:01:31;2.22;;;0.80;;
19861;SDS011;10093;48.148;8.542;2023-05-10T03:03:57;3.33;;;0.50;;
19861;SDS011;10093;48.148;8.542;2023-05-10T03:06:22;2.05;;;0.73;;
19861;SDS011;10093;48.148;8.542;2023-05-10T03:08:48;0.60;;;0.60;;
19861;SDS011;10093;48.148;8.542;2023-05-10T03:16:27;1.43;;;0.60;;
19861;SDS011;10093;48.148;8.542;2023-05-10T03:19:06;1.50;;;0.90;;
19861;SDS011;10093;48.148;8.542;2023-05-10T03:21:38;1.30;;;0.50;;
19861;SDS011;10093;48.148;8.542;2023-05-10T03:24:08;3.13;;;0.40;;
19861;SDS011;10093;48.148;8.542;2023-05-10T03:26:36;2.78;;;0.60;;
19861;SDS011;10093;48.148;8.542;2023-05-10T03:29:04;1.10;;;0.70;;
19861;SDS011;10093;48.148;8.542;2023-05-10T03:31:31;0.68;;;0.68;;
19861;SDS011;10093;48.148;8.542;2023-05-10T03:33:57;0.90;;;0.65;;
19861;SDS011;10093;48.148;8.542;2023-05-10T03:36:23;1.35;;;0.85;;
19861;SDS011;10093;48.148;8.542;2023-05-10T03:38:49;4.03;;;1.05;;
19861;SDS011;10093;48.148;8.542;2023-05-10T03:41:14;3.22;;;0.47;;
19861;SDS011;10093;48.148;8.542;2023-05-10T03:43:40;0.70;;;0.70;;
19861;SDS011;10093;48.148;8.542;2023-05-10T03:46:06;0.80;;;0.80;;
19861;SDS011;10093;48.148;8.542;2023-05-10T03:48:32;1.05;;;0.70;;
19861;SDS011;10093;48.148;8.542;2023-05-10T03:50:58;1.15;;;0.88;;
19861;SDS011;10093;48.148;8.542;2023-05-10T03:53:23;2.97;;;0.82;;
19861;SDS011;10093;48.148;8.542;2023-05-10T03:55:49;4.80;;;1.00;;
19861;SDS011;10093;48.148;8.542;2023-05-10T03:58:15;2.63;;;0.70;;
19861;SDS011;10093;48.148;8.542;2023-05-10T04:00:40;3.00;;;0.80;;
19861;SDS011;10093;48.148;8.542;2023-05-10T04:03:12;1.73;;;1.10;;
19861;SDS011;10093;48.148;8.542;2023-05-10T04:05:37;1.27;;;1.00;;
19861;SDS011;10093;48.148;8.542;2023-05-10T04:08:03;1.42;;;1.15;;
19861;SDS011;10093;48.148;8.542;2023-05-10T04:10:30;4.53;;;1.35;;
19861;SDS011;10093;48.148;8.542;2023-05-10T04:12:56;4.18;;;0.85;;
19861;SDS011;10093;48.148;8.542;2023-05-10T04:15:21;9.82;;;2.65;;
19861;SDS011;10093;48.148;8.542;2023-05-10T04:17:47;2.45;;;1.65;;
19861;SDS011;10093;48.148;8.542;2023-05-10T04:20:13;2.28;;;1.38;;
19861;SDS011;10093;48.148;8.542;2023-05-10T04:22:38;1.83;;;1.70;;
19861;SDS011;10093;48.148;8.542;2023-05-10T04:25:04;5.43;;;2.03;;
19861;SDS011;10093;48.148;8.542;2023-05-10T04:27:31;2.28;;;1.58;;
19861;SDS011;10093;48.148;8.542;2023-05-10T04:29:57;4.65;;;2.25;;
19861;SDS011;10093;48.148;8.542;2023-05-10T04:32:22;4.20;;;2.00;;
19861;SDS011;10093;48.148;8.542;2023-05-10T04:34:48;2.10;;;1.52;;
19861;SDS011;10093;48.148;8.542;2023-05-10T04:37:15;4.35;;;1.63;;
19861;SDS011;10093;48.148;8.542;2023-05-10T04:39:41;6.05;;;1.75;;
19861;SDS011;10093;48.148;8.542;2023-05-10T04:42:06;1.40;;;1.15;;
19861;SDS011;10093;48.148;8.542;2023-05-10T04:44:32;2.70;;;1.50;;
19861;SDS011;10093;48.148;8.542;2023-05-10T04:46:58;1.85;;;1.08;;
19861;SDS011;10093;48.148;8.542;2023-05-10T04:49:24;1.23;;;0.70;;
19861;SDS011;10093;48.148;8.542;2023-05-10T04:51:49;2.67;;;0.73;;
19861;SDS011;10093;48.148;8.542;2023-05-10T04:54:15;2.40;;;0.70;;
19861;SDS011;10093;48.148;8.542;2023-05-10T04:56:41;3.75;;;0.45;;
19861;SDS011;10093;48.148;8.542;2023-05-10T04:59:06;1.50;;;0.60;;
19861;SDS011;10093;48.148;8.542;2023-05-10T05:01:32;1.13;;;0.80;;
19861;SDS011;10093;48.148;8.542;2023-05-10T05:03:58;3.80;;;0.82;;
19861;SDS011;10093;48.148;8.542;2023-05-10T05:06:24;2.13;;;1.00;;
19861;SDS011;10093;48.148;8.542;2023-05-10T05:08:50;1.85;;;0.70;;
19861;SDS011;10093;48.148;8.542;2023-05-10T05:11:16;1.50;;;0.50;;
19861;SDS011;10093;48.148;8.542;2023-05-10T05:13:42;3.58;;;0.68;;
19861;SDS011;10093;48.148;8.542;2023-05-10T05:16:08;1.27;;;0.77;;
19861;SDS011;10093;48.148;8.542;2023-05-10T05:18:35;1.10;;;1.00;;
19861;SDS011;10093;48.148;8.542;2023-05-10T05:21:00;4.22;;;1.80;;
19861;SDS011;10093;48.148;8.542;2023-05-10T05:23:26;4.20;;;2.72;;
19861;SDS011;10093;48.148;8.542;2023-05-10T05:25:52;4.80;;;2.10;;
19861;SDS011;10093;48.148;8.542;2023-05-10T05:28:18;3.72;;;1.70;;
19861;SDS011;10093;48.148;8.542;2023-05-10T05:30:47;2.97;;;1.25;;
19861;SDS011;10093;48.148;8.542;2023-05-10T05:33:13;4.80;;;1.30;;
19861;SDS011;10093;48.148;8.542;2023-05-10T05:35:40;1.27;;;1.20;;
19861;SDS011;10093;48.148;8.542;2023-05-10T05:38:06;3.83;;;1.10;;
19861;SDS011;10093;48.148;8.542;2023-05-10T05:40:31;1.25;;;0.88;;
19861;SDS011;10093;48.148;8.542;2023-05-10T05:42:57;1.58;;;0.70;;
19861;SDS011;10093;48.148;8.542;2023-05-10T05:45:23;0.60;;;0.55;;
19861;SDS011;10093;48.148;8.542;2023-05-10T05:47:48;0.50;;;0.40;;
19861;SDS011;10093;48.148;8.542;2023-05-10T05:50:14;2.28;;;1.35;;
19861;SDS011;10093;48.148;8.542;2023-05-10T05:52:39;0.90;;;0.90;;
19861;SDS011;10093;48.148;8.542;2023-05-10T05:55:05;1.92;;;0.70;;
19861;SDS011;10093;48.148;8.542;2023-05-10T05:57:31;1.00;;;0.93;;
19861;SDS011;10093;48.148;8.542;2023-05-10T05:59:56;2.13;;;0.73;;
19861;SDS011;10093;48.148;8.542;2023-05-10T06:02:22;2.28;;;0.63;;
19861;SDS011;10093;48.148;8.542;2023-05-10T06:04:48;2.03;;;1.00;;
19861;SDS011;10093;48.148;8.542;2023-05-10T06:07:13;2.30;;;0.50;;
19861;SDS011;10093;48.148;8.542;2023-05-10T06:09:39;2.13;;;0.60;;
19861;SDS011;10093;48.148;8.542;2023-05-10T06:12:04;0.50;;;0.50;;
19861;SDS011;10093;48.148;8.542;2023-05-10T06:14:30;0.57;;;0.43;;
19861;SDS011;10093;48.148;8.542;2023-05-10T06:16:56;1.58;;;0.50;;
19861;SDS011;10093;48.148;8.542;2023-05-10T06:19:21;5.25;;;0.50;;
19861;SDS011;10093;48.148;8.542;2023-05-10T06:21:47;1.00;;;0.55;;
19861;SDS011;10093;48.148;8.542;2023-05-10T06:24:13;1.05;;;0.40;;
19861;SDS011;10093;48.148;8.542;2023-05-10T06:26:38;2.00;;;0.40;;
19861;SDS011;10093;48.148;8.542;2023-05-10T06:29:04;2.88;;;0.40;;
19861;SDS011;10093;48.148;8.542;2023-05-10T06:31:30;2.20;;;0.30;;
19861;SDS011;10093;48.148;8.542;2023-05-10T06:33:55;0.75;;;0.40;;
19861;SDS011;10093;48.148;8.542;2023-05-10T06:36:21;0.30;;;0.30;;
19861;SDS011;10093;48.148;8.542;2023-05-10T06:38:47;3.33;;;0.45;;
19861;SDS011;10093;48.148;8.542;2023-05-10T06:41:12;0.30;;;0.30;;
19861;SDS011;10093;48.148;8.542;2023-05-10T06:43:38;1.60;;;0.40;;
19861;SDS011;10093;48.148;8.542;2023-05-10T06:46:06;1.58;;;0.50;;
19861;SDS011;10093;48.148;8.542;2023-05-10T06:48:32;0.65;;;0.40;;
19861;SDS011;10093;48.148;8.542;2023-05-10T06:50:58;0.50;;;0.40;;
19861;SDS011;10093;48.148;8.542;2023-05-10T06:53:23;0.30;;;0.30;;
19861;SDS011;10093;48.148;8.542;2023-05-10T06:55:49;0.80;;;0.40;;
19861;SDS011;10093;48.148;8.542;2023-05-10T06:58:15;0.28;;;0.28;;
19861;SDS011;10093;48.148;8.542;2023-05-10T07:00:40;1.27;;;0.30;;
19861;SDS011;10093;48.148;8.542;2023-05-10T07:03:08;0.38;;;0.30;;
19861;SDS011;10093;48.148;8.542;2023-05-10T07:05:37;0.52;;;0.28;;
19861;SDS011;10093;48.148;8.542;2023-05-10T07:08:02;3.15;;;0.20;;
19861;SDS011;10093;48.148;8.542;2023-05-10T07:10:28;3.35;;;0.30;;
19861;SDS011;10093;48.148;8.542;2023-05-10T07:12:53;4.10;;;0.20;;
19861;SDS011;10093;48.148;8.542;2023-05-10T07:15:19;2.42;;;0.22;;
19861;SDS011;10093;48.148;8.542;2023-05-10T07:17:45;4.10;;;0.20;;
19861;SDS011;10093;48.148;8.542;2023-05-10T07:20:11;1.20;;;0.20;;
19861;SDS011;10093;48.148;8.542;2023-05-10T07:22:37;0.28;;;0.20;;
19861;SDS011;10093;48.148;8.542;2023-05-10T07:25:02;0.88;;;0.20;;
19861;SDS011;10093;48.148;8.542;2023-05-10T07:27:28;0.98;;;0.22;;
19861;SDS011;10093;48.148;8.542;2023-05-10T07:29:54;0.60;;;0.20;;
19861;SDS011;10093;48.148;8.542;2023-05-10T07:32:20;2.72;;;0.20;;
19861;SDS011;10093;48.148;8.542;2023-05-10T07:34:46;0.70;;;0.20;;
19861;SDS011;10093;48.148;8.542;2023-05-10T07:37:11;1.05;;;0.30;;
19861;SDS011;10093;48.148;8.542;2023-05-10T07:39:37;0.45;;;0.20;;
19861;SDS011;10093;48.148;8.542;2023-05-10T07:42:03;3.28;;;0.20;;
19861;SDS011;10093;48.148;8.542;2023-05-10T07:44:28;0.40;;;0.20;;
19861;SDS011;10093;48.148;8.542;2023-05-10T07:46:54;0.40;;;0.20;;
19861;SDS011;10093;48.148;8.542;2023-05-10T07:49:20;1.00;;;0.20;;
19861;SDS011;10093;48.148;8.542;2023-05-10T07:51:49;1.75;;;0.15;;
19861;SDS011;10093;48.148;8.542;2023-05-10T07:54:15;0.80;;;0.20;;
19861;SDS011;10093;48.148;8.542;2023-05-10T07:56:40;0.30;;;0.20;;
19861;SDS011;10093;48.148;8.542;2023-05-10T07:59:14;0.20;;;0.20;;
19861;SDS011;10093;48.148;8.542;2023-05-10T08:01:40;0.47;;;0.20;;
19861;SDS011;10093;48.148;8.542;2023-05-10T08:04:06;0.25;;;0.20;;
19861;SDS011;10093;48.148;8.542;2023-05-10T08:06:32;2.70;;;0.20;;
19861;SDS011;10093;48.148;8.542;2023-05-10T08:08:57;1.23;;;0.20;;
19861;SDS011;10093;48.148;8.542;2023-05-10T08:11:23;1.65;;;0.20;;
19861;SDS011;10093;48.148;8.542;2023-05-10T08:13:50;1.80;;;0.20;;
19861;SDS011;10093;48.148;8.542;2023-05-10T08:16:16;0.50;;;0.10;;
19861;SDS011;10093;48.148;8.542;2023-05-10T08:18:42;0.20;;;0.10;;
19861;SDS011;10093;48.148;8.542;2023-05-10T08:21:10;2.42;;;0.20;;
19861;SDS011;10093;48.148;8.542;2023-05-10T08:23:36;0.10;;;0.10;;
19861;SDS011;10093;48.148;8.542;2023-05-10T08:26:02;0.45;;;0.20;;
19861;SDS011;10093;48.148;8.542;2023-05-10T08:28:27;1.10;;;0.10;;
19861;SDS011;10093;48.148;8.542;2023-05-10T08:30:53;0.73;;;0.10;;
19861;SDS011;10093;48.148;8.542;2023-05-10T08:33:19;1.98;;;0.00;;
19861;SDS011;10093;48.148;8.542;2023-05-10T08:35:45;0.13;;;0.03;;
19861;SDS011;10093;48.148;8.542;2023-05-10T08:38:10;0.10;;;0.10;;
19861;SDS011;10093;48.148;8.542;2023-05-10T08:40:37;0.10;;;0.05;;
19861;SDS011;10093;48.148;8.542;2023-05-10T08:43:06;0.15;;;0.00;;
19861;SDS011;10093;48.148;8.542;2023-05-10T08:45:36;2.47;;;0.10;;
19861;SDS011;10093;48.148;8.542;2023-05-10T08:48:04;2.03;;;0.10;;
19861;SDS011;10093;48.148;8.542;2023-05-10T08:50:32;1.75;;;0.17;;
19861;SDS011;10093;48.148;8.542;2023-05-10T08:53:04;0.10;;;0.10;;
19861;SDS011;10093;48.148;8.542;2023-05-10T08:55:40;2.28;;;0.10;;
19861;SDS011;10093;48.148;8.542;2023-05-10T08:58:07;2.17;;;0.10;;
19861;SDS011;10093;48.148;8.542;2023-05-10T09:00:34;1.20;;;0.10;;
19861;SDS011;10093;48.148;8.542;2023-05-10T09:03:00;0.10;;;0.00;;
19861;SDS011;10093;48.148;8.542;2023-05-10T09:05:27;2.90;;;0.10;;
19861;SDS011;10093;48.148;8.542;2023-05-10T09:07:53;0.47;;;0.10;;
19861;SDS011;10093;48.148;8.542;2023-05-10T09:10:19;1.73;;;0.10;;
19861;SDS011;10093;48.148;8.542;2023-05-10T09:12:45;0.65;;;0.00;;
19861;SDS011;10093;48.148;8.542;2023-05-10T09:15:12;0.80;;;0.10;;
19861;SDS011;10093;48.148;8.542;2023-05-10T09:17:41;0.85;;;0.10;;
19861;SDS011;10093;48.148;8.542;2023-05-10T09:20:07;0.25;;;0.10;;
19861;SDS011;10093;48.148;8.542;2023-05-10T09:22:33;0.10;;;0.10;;
19861;SDS011;10093;48.148;8.542;2023-05-10T09:25:03;2.13;;;0.20;;
19861;SDS011;10093;48.148;8.542;2023-05-10T09:27:39;0.60;;;0.20;;
19861;SDS011;10093;48.148;8.542;2023-05-10T09:30:07;0.30;;;0.10;;
19861;SDS011;10093;48.148;8.542;2023-05-10T09:32:37;0.55;;;0.10;;
19861;SDS011;10093;48.148;8.542;2023-05-10T09:35:10;1.17;;;0.10;;
19861;SDS011;10093;48.148;8.542;2023-05-10T09:37:40;0.43;;;0.10;;
19861;SDS011;10093;48.148;8.542;2023-05-10T09:40:08;0.73;;;0.10;;
19861;SDS011;10093;48.148;8.542;2023-05-10T09:42:37;0.30;;;0.10;;
19861;SDS011;10093;48.148;8.542;2023-05-10T09:45:03;0.80;;;0.20;;
19861;SDS011;10093;48.148;8.542;2023-05-10T09:47:33;0.50;;;0.20;;
19861;SDS011;10093;48.148;8.542;2023-05-10T09:50:00;1.60;;;0.28;;
19861;SDS011;10093;48.148;8.542;2023-05-10T09:52:28;0.20;;;0.20;;
19861;SDS011;10093;48.148;8.542;2023-05-10T09:54:54;0.68;;;0.10;;
19861;SDS011;10093;48.148;8.542;2023-05-10T09:57:21;0.75;;;0.10;;
19861;SDS011;10093;48.148;8.542;2023-05-10T09:59:47;0.10;;;0.10;;
19861;SDS011;10093;48.148;8.542;2023-05-10T10:02:13;2.00;;;0.20;;
19861;SDS011;10093;48.148;8.542;2023-05-10T10:04:39;0.30;;;0.20;;
19861;SDS011;10093;48.148;8.542;2023-05-10T10:07:05;7.43;;;0.40;;
19861;SDS011;10093;48.148;8.542;2023-05-10T10:09:32;2.85;;;0.40;;
19861;SDS011;10093;48.148;8.542;2023-05-10T10:11:59;2.08;;;0.35;;
19861;SDS011;10093;48.148;8.542;2023-05-10T10:14:28;1.05;;;0.17;;
19861;SDS011;10093;48.148;8.542;2023-05-10T10:16:55;2.65;;;0.13;;
19861;SDS011;10093;48.148;8.542;2023-05-10T10:19:20;0.28;;;0.13;;
19861;SDS011;10093;48.148;8.542;2023-05-10T10:21:47;1.10;;;0.20;;
19861;SDS011;10093;48.148;8.542;2023-05-10T10:24:14;1.08;;;0.17;;
19861;SDS011;10093;48.148;8.542;2023-05-10T10:26:40;0.38;;;0.22;;
19861;SDS011;10093;48.148;8.542;2023-05-10T10:29:24;1.38;;;0.30;;
19861;SDS011;10093;48.148;8.542;2023-05-10T10:32:09;0.93;;;0.20;;
19861;SDS011;10093;48.148;8.542;2023-05-10T10:34:49;0.77;;;0.20;;
19861;SDS011;10093;48.148;8.542;2023-05-10T10:37:15;4.13;;;0.20;;
19861;SDS011;10093;48.148;8.542;2023-05-10T10:39:41;3.22;;;0.10;;
19861;SDS011;10093;48.148;8.542;2023-05-10T10:42:06;1.98;;;0.20;;
19861;SDS011;10093;48.148;8.542;2023-05-10T10:47:10;0.30;;;0.20;;
19861;SDS011;10093;48.148;8.542;2023-05-10T10:50:03;0.52;;;0.25;;
19861;SDS011;10093;48.148;8.542;2023-05-10T10:52:34;0.63;;;0.20;;
19861;SDS011;10093;48.148;8.542;2023-05-10T10:57:46;1.55;;;0.30;;
19861;SDS011;10093;48.148;8.542;2023-05-10T11:10:24;0.35;;;0.20;;
19861;SDS011;10093;48.148;8.542;2023-05-10T11:13:00;0.60;;;0.30;;
19861;SDS011;10093;48.148;8.542;2023-05-10T11:15:31;1.45;;;0.30;;
19861;SDS011;10093;48.148;8.542;2023-05-10T11:17:57;1.40;;;0.30;;
19861;SDS011;10093;48.148;8.542;2023-05-10T11:20:23;1.05;;;0.20;;
19861;SDS011;10093;48.148;8.542;2023-05-10T11:22:58;0.20;;;0.20;;
19861;SDS011;10093;48.148;8.542;2023-05-10T11:25:40;0.30;;;0.20;;
19861;SDS011;10093;48.148;8.542;2023-05-10T11:28:09;0.20;;;0.20;;
19861;SDS011;10093;48.148;8.542;2023-05-10T11:30:36;1.05;;;0.20;;
19861;SDS011;10093;48.148;8.542;2023-05-10T11:33:06;1.23;;;0.20;;
19861;SDS011;10093;48.148;8.542;2023-05-10T11:35:41;1.67;;;0.20;;
19861;SDS011;10093;48.148;8.542;2023-05-10T11:38:07;3.30;;;0.30;;
19861;SDS011;10093;48.148;8.542;2023-05-10T11:40:34;2.65;;;0.20;;
19861;SDS011;10093;48.148;8.542;2023-05-10T11:43:00;2.42;;;0.25;;
19861;SDS011;10093;48.148;8.542;2023-05-10T11:45:26;0.95;;;0.20;;
19861;SDS011;10093;48.148;8.542;2023-05-10T11:47:53;2.72;;;0.20;;
19861;SDS011;10093;48.148;8.542;2023-05-10T11:50:19;0.47;;;0.20;;
19861;SDS011;10093;48.148;8.542;2023-05-10T11:52:45;0.73;;;0.20;;
19861;SDS011;10093;48.148;8.542;2023-05-10T11:55:16;1.42;;;0.20;;
19861;SDS011;10093;48.148;8.542;2023-05-10T11:57:41;2.30;;;0.30;;
19861;SDS011;10093;48.148;8.542;2023-05-10T12:00:10;1.42;;;0.30;;
19861;SDS011;10093;48.148;8.542;2023-05-10T12:02:36;3.13;;;0.30;;
19861;SDS011;10093;48.148;8.542;2023-05-10T12:05:02;3.90;;;0.20;;
19861;SDS011;10093;48.148;8.542;2023-05-10T12:07:28;4.70;;;0.30;;
19861;SDS011;10093;48.148;8.542;2023-05-10T12:10:10;3.10;;;0.30;;
19861;SDS011;10093;48.148;8.542;2023-05-10T12:12:40;1.05;;;0.20;;
19861;SDS011;10093;48.148;8.542;2023-05-10T12:15:17;0.90;;;0.20;;
19861;SDS011;10093;48.148;8.542;2023-05-10T12:17:47;0.45;;;0.20;;
19861;SDS011;10093;48.148;8.542;2023-05-10T12:20:17;4.05;;;0.30;;
19861;SDS011;10093;48.148;8.542;2023-05-10T12:22:46;1.55;;;0.30;;
19861;SDS011;10093;48.148;8.542;2023-05-10T12:25:12;0.20;;;0.17;;
19861;SDS011;10093;48.148;8.542;2023-05-10T12:27:38;2.00;;;0.20;;
19861;SDS011;10093;48.148;8.542;2023-05-10T12:30:04;4.20;;;0.22;;
19861;SDS011;10093;48.148;8.542;2023-05-10T12:32:40;3.97;;;0.35;;
19861;SDS011;10093;48.148;8.542;2023-05-10T12:35:06;1.83;;;0.20;;
19861;SDS011;10093;48.148;8.542;2023-05-10T12:37:32;1.27;;;0.22;;
19861;SDS011;10093;48.148;8.542;2023-05-10T12:40:01;2.20;;;0.22;;
19861;SDS011;10093;48.148;8.542;2023-05-10T12:42:27;3.03;;;0.30;;
19861;SDS011;10093;48.148;8.542;2023-05-10T12:44:55;1.33;;;0.30;;
19861;SDS011;10093;48.148;8.542;2023-05-10T12:47:21;0.40;;;0.20;;
19861;SDS011;10093;48.148;8.542;2023-05-10T12:49:47;1.08;;;0.30;;
19861;SDS011;10093;48.148;8.542;2023-05-10T12:52:12;0.77;;;0.30;;
19861;SDS011;10093;48.148;8.542;2023-05-10T12:54:38;0.47;;;0.20;;
19861;SDS011;10093;48.148;8.542;2023-05-10T12:57:03;3.10;;;0.20;;
19861;SDS011;10093;48.148;8.542;2023-05-10T12:59:29;2.33;;;0.30;;
19861;SDS011;10093;48.148;8.542;2023-05-10T13:01:56;3.85;;;0.20;;
19861;SDS011;10093;48.148;8.542;2023-05-10T13:04:22;0.45;;;0.10;;
19861;SDS011;10093;48.148;8.542;2023-05-10T13:06:48;1.23;;;0.20;;
19861;SDS011;10093;48.148;8.542;2023-05-10T13:09:13;2.60;;;0.20;;
19861;SDS011;10093;48.148;8.542;2023-05-10T13:11:40;1.45;;;0.20;;
19861;SDS011;10093;48.148;8.542;2023-05-10T13:14:05;1.63;;;0.17;;
19861;SDS011;10093;48.148;8.542;2023-05-10T13:16:31;1.30;;;0.20;;
19861;SDS011;10093;48.148;8.542;2023-05-10T13:18:57;0.55;;;0.20;;
19861;SDS011;10093;48.148;8.542;2023-05-10T13:21:23;1.10;;;0.20;;
19861;SDS011;10093;48.148;8.542;2023-05-10T13:23:50;1.10;;;0.20;;
19861;SDS011;10093;48.148;8.542;2023-05-10T13:26:15;0.77;;;0.20;;
19861;SDS011;10093;48.148;8.542;2023-05-10T13:28:41;0.82;;;0.20;;
19861;SDS011;10093;48.148;8.542;2023-05-10T13:31:07;1.17;;;0.20;;
19861;SDS011;10093;48.148;8.542;2023-05-10T13:33:32;1.98;;;0.20;;
19861;SDS011;10093;48.148;8.542;2023-05-10T13:35:58;4.47;;;0.30;;
19861;SDS011;10093;48.148;8.542;2023-05-10T13:38:24;1.70;;;0.20;;
19861;SDS011;10093;48.148;8.542;2023-05-10T13:40:49;0.68;;;0.20;;
19861;SDS011;10093;48.148;8.542;2023-05-10T13:43:17;0.90;;;0.20;;
19861;SDS011;10093;48.148;8.542;2023-05-10T13:45:43;1.35;;;0.30;;
19861;SDS011;10093;48.148;8.542;2023-05-10T13:48:09;0.28;;;0.20;;
19861;SDS011;10093;48.148;8.542;2023-05-10T13:50:35;6.55;;;0.20;;
19861;SDS011;10093;48.148;8.542;2023-05-10T13:53:00;1.10;;;0.20;;
19861;SDS011;10093;48.148;8.542;2023-05-10T13:55:26;0.82;;;0.20;;
19861;SDS011;10093;48.148;8.542;2023-05-10T13:57:52;1.75;;;0.20;;
19861;SDS011;10093;48.148;8.542;2023-05-10T14:00:17;1.27;;;0.20;;
19861;SDS011;10093;48.148;8.542;2023-05-10T14:02:43;0.68;;;0.20;;
19861;SDS011;10093;48.148;8.542;2023-05-10T14:05:09;1.17;;;0.40;;
19861;SDS011;10093;48.148;8.542;2023-05-10T14:07:34;0.43;;;0.20;;
19861;SDS011;10093;48.148;8.542;2023-05-10T14:10:00;4.43;;;0.30;;
19861;SDS011;10093;48.148;8.542;2023-05-10T14:12:25;3.72;;;0.70;;
19861;SDS011;10093;48.148;8.542;2023-05-10T14:14:52;1.48;;;0.30;;
19861;SDS011;10093;48.148;8.542;2023-05-10T14:17:17;4.75;;;0.30;;
19861;SDS011;10093;48.148;8.542;2023-05-10T14:19:44;2.38;;;0.20;;
19861;SDS011;10093;48.148;8.542;2023-05-10T14:22:09;3.08;;;0.17;;
19861;SDS011;10093;48.148;8.542;2023-05-10T14:24:35;4.03;;;0.10;;
19861;SDS011;10093;48.148;8.542;2023-05-10T14:27:01;0.75;;;0.10;;
19861;SDS011;10093;48.148;8.542;2023-05-10T14:29:26;1.42;;;0.20;;
19861;SDS011;10093;48.148;8.542;2023-05-10T14:31:52;2.50;;;0.10;;
19861;SDS011;10093;48.148;8.542;2023-05-10T14:34:18;2.33;;;0.20;;
19861;SDS011;10093;48.148;8.542;2023-05-10T14:36:43;2.05;;;0.20;;
19861;SDS011;10093;48.148;8.542;2023-05-10T14:39:09;0.77;;;0.10;;
19861;SDS011;10093;48.148;8.542;2023-05-10T14:41:35;0.30;;;0.10;;
19861;SDS011;10093;48.148;8.542;2023-05-10T14:44:00;0.38;;;0.10;;
19861;SDS011;10093;48.148;8.542;2023-05-10T14:46:28;0.43;;;0.20;;
19861;SDS011;10093;48.148;8.542;2023-05-10T14:48:54;1.42;;;0.10;;
19861;SDS011;10093;48.148;8.542;2023-05-10T14:51:20;1.85;;;0.17;;
19861;SDS011;10093;48.148;8.542;2023-05-10T14:53:47;1.85;;;0.10;;
19861;SDS011;10093;48.148;8.542;2023-05-10T14:56:13;0.70;;;0.10;;
19861;SDS011;10093;48.148;8.542;2023-05-10T14:58:39;0.95;;;0.10;;
19861;SDS011;10093;48.148;8.542;2023-05-10T15:01:05;1.00;;;0.10;;
19861;SDS011;10093;48.148;8.542;2023-05-10T15:03:30;1.02;;;0.10;;
19861;SDS011;10093;48.148;8.542;2023-05-10T15:05:56;0.20;;;0.10;;
19861;SDS011;10093;48.148;8.542;2023-05-10T15:08:22;1.95;;;0.20;;
19861;SDS011;10093;48.148;8.542;2023-05-10T15:10:49;0.70;;;0.10;;
19861;SDS011;10093;48.148;8.542;2023-05-10T15:13:16;0.80;;;0.10;;
19861;SDS011;10093;48.148;8.542;2023-05-10T15:15:41;0.10;;;0.10;;
19861;SDS011;10093;48.148;8.542;2023-05-10T15:18:08;5.82;;;0.17;;
19861;SDS011;10093;48.148;8.542;2023-05-10T15:20:34;0.10;;;0.10;;
19861;SDS011;10093;48.148;8.542;2023-05-10T15:23:00;1.20;;;0.10;;
19861;SDS011;10093;48.148;8.542;2023-05-10T15:25:26;2.45;;;0.10;;
19861;SDS011;10093;48.148;8.542;2023-05-10T15:27:52;2.67;;;0.17;;